アテネ の空港の天気 - METARとTAF

アテネ国際空港 ( LGAV / ATH ) - ギリシャ アテネ
飛行場実況気象(Metar)
観測時間04/26 19:50 EEST (04/26 16:50 UTC)
風向・風速不定 1m/s
視程10km以上
天気現象
なし
気温19℃
湿度68%
気圧1018hPa
METARLGAV 261650Z VRB02KT CAVOK 19/13 Q1018 NOSIG
過去の天気等 Google飛行場航空写真 Wunderground天気予報

過去48時間のMETAR

飛行場予報(TAF)
発表時間: 4/26 14:00 EEST (4/26 11:00 UTC)
予報対象時間: 26日15時 EEST ~ 27日15時 EEST
風向・風速東北東 4m/s
視程10km以上
少しの雲 雲底高度 760m
26日19時 EEST ~ 26日21時 EEST に徐々に
風向・風速不定 2m/s
TAF LGAV 261100Z 2612/2712 07008KT 9999 FEW025
BECMG 2616/2618 VRB03KT